sensor_id;sensor_type;location;lat;lon;timestamp;temperature;humidity
39919;DHT22;25589;51.552;13.424;2023-11-21T00:00:54;9.50;99.90
39919;DHT22;25589;51.552;13.424;2023-11-21T00:03:20;9.60;99.90
39919;DHT22;25589;51.552;13.424;2023-11-21T00:05:45;9.50;99.90
39919;DHT22;25589;51.552;13.424;2023-11-21T00:08:11;9.50;99.90
39919;DHT22;25589;51.552;13.424;2023-11-21T00:10:37;9.40;99.90
39919;DHT22;25589;51.552;13.424;2023-11-21T00:13:04;9.50;99.90
39919;DHT22;25589;51.552;13.424;2023-11-21T00:15:29;9.50;99.90
39919;DHT22;25589;51.552;13.424;2023-11-21T00:17:55;9.80;99.90
39919;DHT22;25589;51.552;13.424;2023-11-21T00:20:20;9.40;99.90
39919;DHT22;25589;51.552;13.424;2023-11-21T00:22:46;9.30;99.90
39919;DHT22;25589;51.552;13.424;2023-11-21T00:25:12;9.40;99.90
39919;DHT22;25589;51.552;13.424;2023-11-21T00:27:41;8.60;99.90
39919;DHT22;25589;51.552;13.424;2023-11-21T00:30:07;9.40;99.90
39919;DHT22;25589;51.552;13.424;2023-11-21T00:32:35;9.70;99.90
39919;DHT22;25589;51.552;13.424;2023-11-21T00:35:01;9.30;99.90
39919;DHT22;25589;51.552;13.424;2023-11-21T00:37:27;9.20;99.90
39919;DHT22;25589;51.552;13.424;2023-11-21T00:39:53;9.30;99.90
39919;DHT22;25589;51.552;13.424;2023-11-21T00:42:19;8.90;99.90
39919;DHT22;25589;51.552;13.424;2023-11-21T00:44:44;9.20;99.90
39919;DHT22;25589;51.552;13.424;2023-11-21T00:47:10;9.20;99.90
39919;DHT22;25589;51.552;13.424;2023-11-21T00:49:35;10.10;99.90
39919;DHT22;25589;51.552;13.424;2023-11-21T00:52:01;9.50;99.90
39919;DHT22;25589;51.552;13.424;2023-11-21T00:54:27;9.90;99.90
39919;DHT22;25589;51.552;13.424;2023-11-21T00:56:53;9.20;99.90
39919;DHT22;25589;51.552;13.424;2023-11-21T00:59:18;9.60;99.90
39919;DHT22;25589;51.552;13.424;2023-11-21T01:01:44;9.10;99.90
39919;DHT22;25589;51.552;13.424;2023-11-21T01:04:10;9.30;99.90
39919;DHT22;25589;51.552;13.424;2023-11-21T01:06:36;8.60;99.90
39919;DHT22;25589;51.552;13.424;2023-11-21T01:09:01;8.90;99.90
39919;DHT22;25589;51.552;13.424;2023-11-21T01:11:33;10.00;99.90
39919;DHT22;25589;51.552;13.424;2023-11-21T01:14:01;9.30;99.90
39919;DHT22;25589;51.552;13.424;2023-11-21T01:16:28;9.40;99.90
39919;DHT22;25589;51.552;13.424;2023-11-21T01:21:20;9.30;99.90
39919;DHT22;25589;51.552;13.424;2023-11-21T01:23:46;9.30;99.90
39919;DHT22;25589;51.552;13.424;2023-11-21T01:26:12;8.80;99.90
39919;DHT22;25589;51.552;13.424;2023-11-21T01:28:38;9.20;99.90
39919;DHT22;25589;51.552;13.424;2023-11-21T01:31:04;9.60;99.90
39919;DHT22;25589;51.552;13.424;2023-11-21T01:33:29;9.40;99.90
39919;DHT22;25589;51.552;13.424;2023-11-21T01:35:55;9.40;99.90
39919;DHT22;25589;51.552;13.424;2023-11-21T01:38:21;9.90;99.90
39919;DHT22;25589;51.552;13.424;2023-11-21T01:40:47;9.20;99.90
39919;DHT22;25589;51.552;13.424;2023-11-21T01:43:13;9.00;99.90
39919;DHT22;25589;51.552;13.424;2023-11-21T01:45:38;9.10;99.90
39919;DHT22;25589;51.552;13.424;2023-11-21T01:48:04;9.30;99.90
39919;DHT22;25589;51.552;13.424;2023-11-21T01:50:32;9.40;99.90
39919;DHT22;25589;51.552;13.424;2023-11-21T02:00:19;9.80;99.90
39919;DHT22;25589;51.552;13.424;2023-11-21T02:02:46;9.40;99.90
39919;DHT22;25589;51.552;13.424;2023-11-21T02:07:40;9.50;99.90
39919;DHT22;25589;51.552;13.424;2023-11-21T02:10:06;9.90;99.90
39919;DHT22;25589;51.552;13.424;2023-11-21T02:12:33;9.30;99.90
39919;DHT22;25589;51.552;13.424;2023-11-21T02:15:03;9.40;99.90
39919;DHT22;25589;51.552;13.424;2023-11-21T02:17:36;8.90;99.90
39919;DHT22;25589;51.552;13.424;2023-11-21T02:20:02;9.30;99.90
39919;DHT22;25589;51.552;13.424;2023-11-21T02:22:31;9.60;99.90
39919;DHT22;25589;51.552;13.424;2023-11-21T02:24:57;9.60;99.90
39919;DHT22;25589;51.552;13.424;2023-11-21T02:27:24;9.30;99.90
39919;DHT22;25589;51.552;13.424;2023-11-21T02:29:49;9.30;99.90
39919;DHT22;25589;51.552;13.424;2023-11-21T02:32:15;9.30;99.90
39919;DHT22;25589;51.552;13.424;2023-11-21T02:34:44;9.80;99.90
39919;DHT22;25589;51.552;13.424;2023-11-21T02:37:10;9.30;99.90
39919;DHT22;25589;51.552;13.424;2023-11-21T02:39:35;9.30;99.90
39919;DHT22;25589;51.552;13.424;2023-11-21T02:42:01;9.30;99.90
39919;DHT22;25589;51.552;13.424;2023-11-21T02:44:27;9.50;99.90
39919;DHT22;25589;51.552;13.424;2023-11-21T02:46:52;9.00;99.90
39919;DHT22;25589;51.552;13.424;2023-11-21T02:49:18;10.40;99.90
39919;DHT22;25589;51.552;13.424;2023-11-21T02:51:43;9.80;99.90
39919;DHT22;25589;51.552;13.424;2023-11-21T02:54:09;9.90;99.90
39919;DHT22;25589;51.552;13.424;2023-11-21T02:56:35;9.80;99.90
39919;DHT22;25589;51.552;13.424;2023-11-21T02:59:02;8.50;99.90
39919;DHT22;25589;51.552;13.424;2023-11-21T03:01:28;9.20;99.90
39919;DHT22;25589;51.552;13.424;2023-11-21T03:03:54;10.00;99.90
39919;DHT22;25589;51.552;13.424;2023-11-21T03:06:20;9.30;99.90
39919;DHT22;25589;51.552;13.424;2023-11-21T03:08:46;9.70;99.90
39919;DHT22;25589;51.552;13.424;2023-11-21T03:11:13;9.10;99.90
39919;DHT22;25589;51.552;13.424;2023-11-21T03:13:42;9.30;99.90
39919;DHT22;25589;51.552;13.424;2023-11-21T03:16:11;8.40;99.90
39919;DHT22;25589;51.552;13.424;2023-11-21T03:18:38;10.20;99.90
39919;DHT22;25589;51.552;13.424;2023-11-21T03:21:06;9.20;99.90
39919;DHT22;25589;51.552;13.424;2023-11-21T03:23:36;9.20;99.90
39919;DHT22;25589;51.552;13.424;2023-11-21T03:26:03;8.50;99.90
39919;DHT22;25589;51.552;13.424;2023-11-21T03:28:29;9.50;99.90
39919;DHT22;25589;51.552;13.424;2023-11-21T03:30:56;9.90;99.90
39919;DHT22;25589;51.552;13.424;2023-11-21T03:33:23;9.20;99.90
39919;DHT22;25589;51.552;13.424;2023-11-21T03:35:48;8.50;99.90
39919;DHT22;25589;51.552;13.424;2023-11-21T03:38:14;9.20;99.90
39919;DHT22;25589;51.552;13.424;2023-11-21T03:40:41;9.90;99.90
39919;DHT22;25589;51.552;13.424;2023-11-21T03:43:07;9.10;99.90
39919;DHT22;25589;51.552;13.424;2023-11-21T03:45:32;9.70;99.90
39919;DHT22;25589;51.552;13.424;2023-11-21T03:47:58;8.80;99.90
39919;DHT22;25589;51.552;13.424;2023-11-21T03:50:23;8.90;99.90
39919;DHT22;25589;51.552;13.424;2023-11-21T03:52:49;9.70;99.90
39919;DHT22;25589;51.552;13.424;2023-11-21T03:55:14;9.20;99.90
39919;DHT22;25589;51.552;13.424;2023-11-21T03:57:42;9.20;99.90
39919;DHT22;25589;51.552;13.424;2023-11-21T04:02:37;9.60;99.90
39919;DHT22;25589;51.552;13.424;2023-11-21T04:05:03;9.80;99.90
39919;DHT22;25589;51.552;13.424;2023-11-21T04:07:30;9.20;99.90
39919;DHT22;25589;51.552;13.424;2023-11-21T04:09:55;8.90;99.90
39919;DHT22;25589;51.552;13.424;2023-11-21T04:12:21;9.50;99.90
39919;DHT22;25589;51.552;13.424;2023-11-21T04:14:47;9.20;99.90
39919;DHT22;25589;51.552;13.424;2023-11-21T04:17:12;9.40;99.90
39919;DHT22;25589;51.552;13.424;2023-11-21T04:19:38;9.20;99.90
39919;DHT22;25589;51.552;13.424;2023-11-21T04:22:03;9.00;99.90
39919;DHT22;25589;51.552;13.424;2023-11-21T04:24:29;9.00;99.90
39919;DHT22;25589;51.552;13.424;2023-11-21T04:26:55;8.60;99.90
39919;DHT22;25589;51.552;13.424;2023-11-21T04:29:20;9.50;99.90
39919;DHT22;25589;51.552;13.424;2023-11-21T04:31:46;9.00;99.90
39919;DHT22;25589;51.552;13.424;2023-11-21T04:34:14;9.00;99.90
39919;DHT22;25589;51.552;13.424;2023-11-21T04:36:39;9.00;99.90
39919;DHT22;25589;51.552;13.424;2023-11-21T04:39:05;9.00;99.90
39919;DHT22;25589;51.552;13.424;2023-11-21T04:41:32;8.90;99.90
39919;DHT22;25589;51.552;13.424;2023-11-21T04:43:57;9.00;99.90
39919;DHT22;25589;51.552;13.424;2023-11-21T04:46:24;9.00;99.90
39919;DHT22;25589;51.552;13.424;2023-11-21T04:48:49;9.10;99.90
39919;DHT22;25589;51.552;13.424;2023-11-21T04:51:15;10.10;99.90
39919;DHT22;25589;51.552;13.424;2023-11-21T04:53:40;9.60;99.90
39919;DHT22;25589;51.552;13.424;2023-11-21T04:56:06;8.90;99.90
39919;DHT22;25589;51.552;13.424;2023-11-21T04:58:32;8.80;99.90
39919;DHT22;25589;51.552;13.424;2023-11-21T05:00:58;9.00;99.90
39919;DHT22;25589;51.552;13.424;2023-11-21T05:03:24;9.00;99.90
39919;DHT22;25589;51.552;13.424;2023-11-21T05:05:49;8.30;99.90
39919;DHT22;25589;51.552;13.424;2023-11-21T05:08:15;8.40;99.90
39919;DHT22;25589;51.552;13.424;2023-11-21T05:10:40;8.90;99.90
39919;DHT22;25589;51.552;13.424;2023-11-21T05:13:06;8.70;99.90
39919;DHT22;25589;51.552;13.424;2023-11-21T05:15:36;9.00;99.90
39919;DHT22;25589;51.552;13.424;2023-11-21T05:18:02;8.60;99.90
39919;DHT22;25589;51.552;13.424;2023-11-21T05:20:28;9.10;99.90
39919;DHT22;25589;51.552;13.424;2023-11-21T05:22:53;9.10;99.90
39919;DHT22;25589;51.552;13.424;2023-11-21T05:25:19;9.50;99.90
39919;DHT22;25589;51.552;13.424;2023-11-21T05:27:46;9.50;99.90
39919;DHT22;25589;51.552;13.424;2023-11-21T05:30:12;9.10;99.90
39919;DHT22;25589;51.552;13.424;2023-11-21T05:32:39;9.40;99.90
39919;DHT22;25589;51.552;13.424;2023-11-21T05:35:04;9.10;99.90
39919;DHT22;25589;51.552;13.424;2023-11-21T05:37:35;8.50;99.90
39919;DHT22;25589;51.552;13.424;2023-11-21T05:40:01;8.60;99.90
39919;DHT22;25589;51.552;13.424;2023-11-21T05:42:32;10.30;99.90
39919;DHT22;25589;51.552;13.424;2023-11-21T05:44:57;9.70;99.90
39919;DHT22;25589;51.552;13.424;2023-11-21T05:47:44;8.60;99.90
39919;DHT22;25589;51.552;13.424;2023-11-21T05:50:12;9.20;99.90
39919;DHT22;25589;51.552;13.424;2023-11-21T05:52:41;9.30;99.90
39919;DHT22;25589;51.552;13.424;2023-11-21T05:55:07;9.30;99.90
39919;DHT22;25589;51.552;13.424;2023-11-21T05:57:40;9.30;99.90
39919;DHT22;25589;51.552;13.424;2023-11-21T06:00:10;8.80;99.90
39919;DHT22;25589;51.552;13.424;2023-11-21T06:02:39;9.30;99.90
39919;DHT22;25589;51.552;13.424;2023-11-21T06:05:10;9.40;99.90
39919;DHT22;25589;51.552;13.424;2023-11-21T06:07:37;10.00;99.90
39919;DHT22;25589;51.552;13.424;2023-11-21T06:10:07;9.40;99.90
39919;DHT22;25589;51.552;13.424;2023-11-21T06:12:35;9.20;99.90
39919;DHT22;25589;51.552;13.424;2023-11-21T06:15:02;9.20;99.90
39919;DHT22;25589;51.552;13.424;2023-11-21T06:17:30;9.00;99.90
39919;DHT22;25589;51.552;13.424;2023-11-21T06:19:56;9.50;99.90
39919;DHT22;25589;51.552;13.424;2023-11-21T06:22:22;9.50;99.90
39919;DHT22;25589;51.552;13.424;2023-11-21T06:24:47;9.30;99.90
39919;DHT22;25589;51.552;13.424;2023-11-21T06:27:13;9.10;99.90
39919;DHT22;25589;51.552;13.424;2023-11-21T06:29:38;9.10;99.90
39919;DHT22;25589;51.552;13.424;2023-11-21T06:32:04;9.20;99.90
39919;DHT22;25589;51.552;13.424;2023-11-21T06:34:30;9.10;99.90
39919;DHT22;25589;51.552;13.424;2023-11-21T06:36:56;9.00;99.90
39919;DHT22;25589;51.552;13.424;2023-11-21T06:39:22;9.20;99.90
39919;DHT22;25589;51.552;13.424;2023-11-21T06:41:49;9.30;99.90
39919;DHT22;25589;51.552;13.424;2023-11-21T06:44:15;8.40;99.90
39919;DHT22;25589;51.552;13.424;2023-11-21T06:46:41;9.30;99.90
39919;DHT22;25589;51.552;13.424;2023-11-21T06:49:08;9.20;99.90
39919;DHT22;25589;51.552;13.424;2023-11-21T06:51:33;10.10;99.90
39919;DHT22;25589;51.552;13.424;2023-11-21T06:53:59;10.50;99.90
39919;DHT22;25589;51.552;13.424;2023-11-21T06:56:25;8.50;99.90
39919;DHT22;25589;51.552;13.424;2023-11-21T06:58:51;10.00;99.90
39919;DHT22;25589;51.552;13.424;2023-11-21T07:01:19;9.20;99.90
39919;DHT22;25589;51.552;13.424;2023-11-21T07:03:44;9.60;99.90
39919;DHT22;25589;51.552;13.424;2023-11-21T07:06:10;9.20;99.90
39919;DHT22;25589;51.552;13.424;2023-11-21T07:08:37;9.30;99.90
39919;DHT22;25589;51.552;13.424;2023-11-21T07:11:03;9.20;99.90
39919;DHT22;25589;51.552;13.424;2023-11-21T07:13:30;9.30;99.90
39919;DHT22;25589;51.552;13.424;2023-11-21T07:15:56;9.40;99.90
39919;DHT22;25589;51.552;13.424;2023-11-21T07:18:21;8.90;99.90
39919;DHT22;25589;51.552;13.424;2023-11-21T07:20:47;9.20;99.90
39919;DHT22;25589;51.552;13.424;2023-11-21T07:23:13;9.10;99.90
39919;DHT22;25589;51.552;13.424;2023-11-21T07:25:38;9.20;99.90
39919;DHT22;25589;51.552;13.424;2023-11-21T07:28:04;9.10;99.90
39919;DHT22;25589;51.552;13.424;2023-11-21T07:30:30;9.60;99.90
39919;DHT22;25589;51.552;13.424;2023-11-21T07:32:56;8.80;99.90
39919;DHT22;25589;51.552;13.424;2023-11-21T07:37:48;9.30;99.90
39919;DHT22;25589;51.552;13.424;2023-11-21T07:40:14;9.20;99.90
39919;DHT22;25589;51.552;13.424;2023-11-21T07:45:08;8.70;99.90
39919;DHT22;25589;51.552;13.424;2023-11-21T07:47:33;9.70;99.90
39919;DHT22;25589;51.552;13.424;2023-11-21T07:52:28;8.40;99.90
39919;DHT22;25589;51.552;13.424;2023-11-21T07:54:54;7.60;99.90
39919;DHT22;25589;51.552;13.424;2023-11-21T07:57:19;8.20;99.90
39919;DHT22;25589;51.552;13.424;2023-11-21T07:59:45;8.20;99.90
39919;DHT22;25589;51.552;13.424;2023-11-21T08:04:36;7.80;99.90
39919;DHT22;25589;51.552;13.424;2023-11-21T08:07:02;8.00;99.90
39919;DHT22;25589;51.552;13.424;2023-11-21T08:09:29;7.30;99.90
39919;DHT22;25589;51.552;13.424;2023-11-21T08:11:55;8.10;99.90
39919;DHT22;25589;51.552;13.424;2023-11-21T08:14:22;7.10;99.90
39919;DHT22;25589;51.552;13.424;2023-11-21T08:16:47;7.90;99.90
39919;DHT22;25589;51.552;13.424;2023-11-21T08:19:13;8.10;99.90
39919;DHT22;25589;51.552;13.424;2023-11-21T08:21:38;7.90;99.90
39919;DHT22;25589;51.552;13.424;2023-11-21T08:24:06;8.20;99.90
39919;DHT22;25589;51.552;13.424;2023-11-21T08:26:36;8.90;99.90
39919;DHT22;25589;51.552;13.424;2023-11-21T08:29:02;8.30;99.90
39919;DHT22;25589;51.552;13.424;2023-11-21T08:31:27;8.10;99.90
39919;DHT22;25589;51.552;13.424;2023-11-21T08:33:54;8.20;99.90
39919;DHT22;25589;51.552;13.424;2023-11-21T08:36:21;8.80;99.90
39919;DHT22;25589;51.552;13.424;2023-11-21T08:38:49;8.00;99.90
39919;DHT22;25589;51.552;13.424;2023-11-21T08:41:17;8.40;99.90
39919;DHT22;25589;51.552;13.424;2023-11-21T08:46:10;7.20;99.90
39919;DHT22;25589;51.552;13.424;2023-11-21T08:48:38;8.20;99.90
39919;DHT22;25589;51.552;13.424;2023-11-21T08:51:06;8.20;99.90
39919;DHT22;25589;51.552;13.424;2023-11-21T08:53:32;9.00;99.90
39919;DHT22;25589;51.552;13.424;2023-11-21T08:55:58;8.10;99.90
39919;DHT22;25589;51.552;13.424;2023-11-21T08:58:24;8.60;99.90
39919;DHT22;25589;51.552;13.424;2023-11-21T09:00:49;8.50;99.90
39919;DHT22;25589;51.552;13.424;2023-11-21T09:03:15;7.50;99.90
39919;DHT22;25589;51.552;13.424;2023-11-21T09:05:40;7.80;99.90
39919;DHT22;25589;51.552;13.424;2023-11-21T09:08:06;8.50;99.90
39919;DHT22;25589;51.552;13.424;2023-11-21T09:13:01;7.80;99.90
39919;DHT22;25589;51.552;13.424;2023-11-21T09:15:27;7.80;99.90
39919;DHT22;25589;51.552;13.424;2023-11-21T09:17:53;7.60;99.90
39919;DHT22;25589;51.552;13.424;2023-11-21T09:20:18;6.80;99.90
39919;DHT22;25589;51.552;13.424;2023-11-21T09:22:48;7.60;99.90
39919;DHT22;25589;51.552;13.424;2023-11-21T09:25:14;7.70;99.90
39919;DHT22;25589;51.552;13.424;2023-11-21T09:27:39;7.80;99.90
39919;DHT22;25589;51.552;13.424;2023-11-21T09:30:06;7.60;99.90
39919;DHT22;25589;51.552;13.424;2023-11-21T09:32:35;7.70;99.90
39919;DHT22;25589;51.552;13.424;2023-11-21T09:35:03;7.70;99.90
39919;DHT22;25589;51.552;13.424;2023-11-21T09:37:28;7.60;99.90
39919;DHT22;25589;51.552;13.424;2023-11-21T09:39:54;7.60;99.90
39919;DHT22;25589;51.552;13.424;2023-11-21T09:42:25;7.70;99.90
39919;DHT22;25589;51.552;13.424;2023-11-21T09:47:38;7.80;99.90
39919;DHT22;25589;51.552;13.424;2023-11-21T09:52:43;7.70;99.90
39919;DHT22;25589;51.552;13.424;2023-11-21T09:55:13;7.60;99.90
39919;DHT22;25589;51.552;13.424;2023-11-21T09:57:41;7.50;99.90
39919;DHT22;25589;51.552;13.424;2023-11-21T10:00:08;7.70;99.90
39919;DHT22;25589;51.552;13.424;2023-11-21T10:02:38;7.90;99.90
39919;DHT22;25589;51.552;13.424;2023-11-21T10:05:04;6.90;99.90
39919;DHT22;25589;51.552;13.424;2023-11-21T10:07:31;7.90;99.90
39919;DHT22;25589;51.552;13.424;2023-11-21T10:12:26;7.90;99.90
39919;DHT22;25589;51.552;13.424;2023-11-21T10:14:54;7.90;99.90
39919;DHT22;25589;51.552;13.424;2023-11-21T10:19:53;7.90;99.90
39919;DHT22;25589;51.552;13.424;2023-11-21T10:22:20;8.40;99.90
39919;DHT22;25589;51.552;13.424;2023-11-21T10:24:46;7.10;99.90
39919;DHT22;25589;51.552;13.424;2023-11-21T10:27:12;8.00;99.90
39919;DHT22;25589;51.552;13.424;2023-11-21T10:29:39;7.90;99.90
39919;DHT22;25589;51.552;13.424;2023-11-21T10:32:05;8.00;99.90
39919;DHT22;25589;51.552;13.424;2023-11-21T10:34:31;8.00;99.90
39919;DHT22;25589;51.552;13.424;2023-11-21T10:36:57;8.00;99.90
39919;DHT22;25589;51.552;13.424;2023-11-21T10:39:24;6.70;99.90
39919;DHT22;25589;51.552;13.424;2023-11-21T10:41:54;9.30;99.90
39919;DHT22;25589;51.552;13.424;2023-11-21T10:44:20;8.60;99.90
39919;DHT22;25589;51.552;13.424;2023-11-21T10:46:48;8.00;99.90
39919;DHT22;25589;51.552;13.424;2023-11-21T10:49:17;8.70;99.90
39919;DHT22;25589;51.552;13.424;2023-11-21T10:51:44;7.90;99.90
39919;DHT22;25589;51.552;13.424;2023-11-21T10:54:09;8.90;99.90
39919;DHT22;25589;51.552;13.424;2023-11-21T10:59:08;7.90;99.90
39919;DHT22;25589;51.552;13.424;2023-11-21T11:01:35;8.00;99.90
39919;DHT22;25589;51.552;13.424;2023-11-21T11:04:03;8.00;99.90
39919;DHT22;25589;51.552;13.424;2023-11-21T11:06:31;8.60;99.90
39919;DHT22;25589;51.552;13.424;2023-11-21T11:08:59;7.60;99.90
39919;DHT22;25589;51.552;13.424;2023-11-21T11:11:25;7.50;99.90
39919;DHT22;25589;51.552;13.424;2023-11-21T11:13:52;7.60;99.90
39919;DHT22;25589;51.552;13.424;2023-11-21T11:16:19;8.10;99.90
39919;DHT22;25589;51.552;13.424;2023-11-21T11:18:45;8.30;99.90
39919;DHT22;25589;51.552;13.424;2023-11-21T11:21:31;7.50;99.90
39919;DHT22;25589;51.552;13.424;2023-11-21T11:24:36;7.40;99.90
39919;DHT22;25589;51.552;13.424;2023-11-21T11:27:15;7.50;99.90
39919;DHT22;25589;51.552;13.424;2023-11-21T11:35:24;7.30;99.90
39919;DHT22;25589;51.552;13.424;2023-11-21T11:37:52;7.10;99.90
39919;DHT22;25589;51.552;13.424;2023-11-21T11:40:18;8.00;99.90
39919;DHT22;25589;51.552;13.424;2023-11-21T11:43:01;7.60;99.90
39919;DHT22;25589;51.552;13.424;2023-11-21T11:48:01;7.30;99.90
39919;DHT22;25589;51.552;13.424;2023-11-21T11:50:29;7.00;99.90
39919;DHT22;25589;51.552;13.424;2023-11-21T11:52:57;7.50;99.90
39919;DHT22;25589;51.552;13.424;2023-11-21T11:55:37;7.20;99.90
39919;DHT22;25589;51.552;13.424;2023-11-21T11:58:06;8.40;99.90
39919;DHT22;25589;51.552;13.424;2023-11-21T12:00:35;7.60;99.90
39919;DHT22;25589;51.552;13.424;2023-11-21T12:03:07;7.70;99.90
39919;DHT22;25589;51.552;13.424;2023-11-21T12:05:34;8.70;99.90
39919;DHT22;25589;51.552;13.424;2023-11-21T12:08:07;7.60;99.90
39919;DHT22;25589;51.552;13.424;2023-11-21T12:10:38;7.30;99.90
39919;DHT22;25589;51.552;13.424;2023-11-21T12:13:09;7.20;99.90
39919;DHT22;25589;51.552;13.424;2023-11-21T12:15:39;7.50;99.90
39919;DHT22;25589;51.552;13.424;2023-11-21T12:18:06;7.30;99.90
39919;DHT22;25589;51.552;13.424;2023-11-21T12:23:04;7.20;99.90
39919;DHT22;25589;51.552;13.424;2023-11-21T12:25:31;7.30;99.90
39919;DHT22;25589;51.552;13.424;2023-11-21T12:28:02;7.30;99.90
39919;DHT22;25589;51.552;13.424;2023-11-21T12:33:02;7.10;99.90
39919;DHT22;25589;51.552;13.424;2023-11-21T12:35:34;7.20;99.90
39919;DHT22;25589;51.552;13.424;2023-11-21T12:38:00;7.20;99.90
39919;DHT22;25589;51.552;13.424;2023-11-21T12:40:28;7.10;99.90
39919;DHT22;25589;51.552;13.424;2023-11-21T12:42:56;7.10;99.90
39919;DHT22;25589;51.552;13.424;2023-11-21T12:45:23;6.80;99.90
39919;DHT22;25589;51.552;13.424;2023-11-21T12:47:53;6.70;99.90
39919;DHT22;25589;51.552;13.424;2023-11-21T12:50:22;6.40;99.90
39919;DHT22;25589;51.552;13.424;2023-11-21T12:52:50;6.60;99.90
39919;DHT22;25589;51.552;13.424;2023-11-21T12:55:17;6.60;99.90
39919;DHT22;25589;51.552;13.424;2023-11-21T12:57:44;6.70;99.90
39919;DHT22;25589;51.552;13.424;2023-11-21T13:00:15;6.70;99.90
39919;DHT22;25589;51.552;13.424;2023-11-21T13:02:55;6.70;99.90
39919;DHT22;25589;51.552;13.424;2023-11-21T13:05:30;6.70;99.90
39919;DHT22;25589;51.552;13.424;2023-11-21T13:08:01;6.60;99.90
39919;DHT22;25589;51.552;13.424;2023-11-21T13:13:02;7.10;99.90
39919;DHT22;25589;51.552;13.424;2023-11-21T13:15:30;7.30;99.90
39919;DHT22;25589;51.552;13.424;2023-11-21T13:17:58;6.90;99.90
39919;DHT22;25589;51.552;13.424;2023-11-21T13:20:24;5.80;99.90
39919;DHT22;25589;51.552;13.424;2023-11-21T13:22:51;7.00;99.90
39919;DHT22;25589;51.552;13.424;2023-11-21T13:25:27;6.00;99.90
39919;DHT22;25589;51.552;13.424;2023-11-21T13:28:00;7.10;99.90
39919;DHT22;25589;51.552;13.424;2023-11-21T13:30:26;7.30;99.90
39919;DHT22;25589;51.552;13.424;2023-11-21T13:32:56;6.80;99.90
39919;DHT22;25589;51.552;13.424;2023-11-21T13:35:27;6.50;99.90
39919;DHT22;25589;51.552;13.424;2023-11-21T13:38:09;6.40;99.90
39919;DHT22;25589;51.552;13.424;2023-11-21T13:40:36;6.40;99.90
39919;DHT22;25589;51.552;13.424;2023-11-21T13:43:10;6.30;99.90
39919;DHT22;25589;51.552;13.424;2023-11-21T13:45:39;6.30;99.90
39919;DHT22;25589;51.552;13.424;2023-11-21T13:48:11;6.40;99.90
39919;DHT22;25589;51.552;13.424;2023-11-21T13:50:39;6.50;99.90
39919;DHT22;25589;51.552;13.424;2023-11-21T13:53:12;7.20;99.90
39919;DHT22;25589;51.552;13.424;2023-11-21T13:55:48;6.20;99.90
39919;DHT22;25589;51.552;13.424;2023-11-21T13:58:15;6.50;99.90
39919;DHT22;25589;51.552;13.424;2023-11-21T14:00:45;6.10;99.90
39919;DHT22;25589;51.552;13.424;2023-11-21T14:03:14;6.00;99.90
39919;DHT22;25589;51.552;13.424;2023-11-21T14:05:45;5.80;99.90
39919;DHT22;25589;51.552;13.424;2023-11-21T14:08:13;6.00;99.90
39919;DHT22;25589;51.552;13.424;2023-11-21T14:10:42;6.50;99.90
39919;DHT22;25589;51.552;13.424;2023-11-21T14:13:09;6.30;99.90
39919;DHT22;25589;51.552;13.424;2023-11-21T14:15:41;6.20;99.90
39919;DHT22;25589;51.552;13.424;2023-11-21T14:18:09;7.00;99.90
39919;DHT22;25589;51.552;13.424;2023-11-21T14:20:40;6.30;99.90
39919;DHT22;25589;51.552;13.424;2023-11-21T14:23:06;6.40;99.90
39919;DHT22;25589;51.552;13.424;2023-11-21T14:25:36;7.20;99.90
39919;DHT22;25589;51.552;13.424;2023-11-21T14:28:03;6.10;99.90
39919;DHT22;25589;51.552;13.424;2023-11-21T14:30:29;5.50;99.90
39919;DHT22;25589;51.552;13.424;2023-11-21T14:32:58;6.60;99.90
39919;DHT22;25589;51.552;13.424;2023-11-21T14:35:23;7.30;99.90
39919;DHT22;25589;51.552;13.424;2023-11-21T14:37:49;6.10;99.90
39919;DHT22;25589;51.552;13.424;2023-11-21T14:40:15;6.50;99.90
39919;DHT22;25589;51.552;13.424;2023-11-21T14:42:42;5.90;99.90
39919;DHT22;25589;51.552;13.424;2023-11-21T14:45:09;7.20;99.90
39919;DHT22;25589;51.552;13.424;2023-11-21T14:47:37;5.30;99.90
39919;DHT22;25589;51.552;13.424;2023-11-21T14:50:04;6.30;99.90
39919;DHT22;25589;51.552;13.424;2023-11-21T14:52:52;6.40;99.90
39919;DHT22;25589;51.552;13.424;2023-11-21T14:55:24;6.60;99.90
39919;DHT22;25589;51.552;13.424;2023-11-21T14:57:50;6.60;99.90
39919;DHT22;25589;51.552;13.424;2023-11-21T15:00:20;7.40;99.90
39919;DHT22;25589;51.552;13.424;2023-11-21T15:03:04;6.60;99.90
39919;DHT22;25589;51.552;13.424;2023-11-21T15:05:30;6.60;99.90
39919;DHT22;25589;51.552;13.424;2023-11-21T15:07:56;6.60;99.90
39919;DHT22;25589;51.552;13.424;2023-11-21T15:10:33;6.50;99.90
39919;DHT22;25589;51.552;13.424;2023-11-21T15:13:20;5.90;99.90
39919;DHT22;25589;51.552;13.424;2023-11-21T15:15:47;5.90;99.90
39919;DHT22;25589;51.552;13.424;2023-11-21T15:18:13;6.20;99.90
39919;DHT22;25589;51.552;13.424;2023-11-21T15:20:41;6.60;99.90
39919;DHT22;25589;51.552;13.424;2023-11-21T15:25:34;6.80;99.90
39919;DHT22;25589;51.552;13.424;2023-11-21T15:28:01;6.80;99.90
39919;DHT22;25589;51.552;13.424;2023-11-21T15:30:26;7.90;99.90
39919;DHT22;25589;51.552;13.424;2023-11-21T15:32:52;8.40;99.90
39919;DHT22;25589;51.552;13.424;2023-11-21T15:35:20;7.70;99.90
39919;DHT22;25589;51.552;13.424;2023-11-21T15:37:46;6.50;99.90
39919;DHT22;25589;51.552;13.424;2023-11-21T15:40:11;6.60;99.90
39919;DHT22;25589;51.552;13.424;2023-11-21T15:42:40;6.30;99.90
39919;DHT22;25589;51.552;13.424;2023-11-21T15:45:06;7.50;99.90
39919;DHT22;25589;51.552;13.424;2023-11-21T15:47:33;5.90;99.90
39919;DHT22;25589;51.552;13.424;2023-11-21T15:49:59;7.80;99.90
39919;DHT22;25589;51.552;13.424;2023-11-21T15:52:25;6.80;99.90
39919;DHT22;25589;51.552;13.424;2023-11-21T15:54:50;6.70;99.90
39919;DHT22;25589;51.552;13.424;2023-11-21T15:57:16;7.40;99.90
39919;DHT22;25589;51.552;13.424;2023-11-21T15:59:43;7.30;99.90
39919;DHT22;25589;51.552;13.424;2023-11-21T16:02:10;5.70;99.90
39919;DHT22;25589;51.552;13.424;2023-11-21T16:04:36;6.60;99.90
39919;DHT22;25589;51.552;13.424;2023-11-21T16:07:04;7.50;99.90
39919;DHT22;25589;51.552;13.424;2023-11-21T16:09:31;7.20;99.90
39919;DHT22;25589;51.552;13.424;2023-11-21T16:11:58;6.50;99.90
39919;DHT22;25589;51.552;13.424;2023-11-21T16:14:28;5.80;99.90
39919;DHT22;25589;51.552;13.424;2023-11-21T16:17:00;6.40;99.90
39919;DHT22;25589;51.552;13.424;2023-11-21T16:19:26;5.70;99.90
39919;DHT22;25589;51.552;13.424;2023-11-21T16:21:52;7.40;99.90
39919;DHT22;25589;51.552;13.424;2023-11-21T16:24:18;6.50;99.90
39919;DHT22;25589;51.552;13.424;2023-11-21T16:26:47;6.40;99.90
39919;DHT22;25589;51.552;13.424;2023-11-21T16:29:13;7.50;99.90
39919;DHT22;25589;51.552;13.424;2023-11-21T16:31:42;5.70;99.90